Time;durP1;ratioP1;P1;durP2;ratioP2;P2;SDS_P1;SDS_P2;PMS_P1;PMS_P2;Temp;Humidity;BMP_temperature;BMP_pressure;BME280_temperature;BME280_humidity;BME280_pressure;Samples;Min_cycle;Max_cycle;Signal;HPM_P1;HPM_P2
2022/06/25 00:01:17;;;;;;;6.13;3.27;;;16.90;99.90;;;;;;5034821;28;20218;-64
2022/06/25 00:03:44;;;;;;;4.27;3.10;;;16.80;99.90;;;;;;5034595;28;20291;-64
2022/06/25 00:06:12;;;;;;;3.93;2.90;;;16.80;99.90;;;;;;5034193;28;20226;-64
2022/06/25 00:08:41;;;;;;;5.13;3.00;;;16.80;99.90;;;;;;5034374;28;20213;-64
2022/06/25 00:11:08;;;;;;;3.43;2.57;;;16.90;99.90;;;;;;5034394;28;20207;-63
2022/06/25 00:13:34;;;;;;;3.80;2.40;;;16.80;99.90;;;;;;5034201;28;20214;-64
2022/06/25 00:16:01;;;;;;;4.40;2.57;;;16.80;99.90;;;;;;5033665;28;20325;-64
2022/06/25 00:18:28;;;;;;;3.40;2.80;;;16.80;99.90;;;;;;5034213;28;20218;-64
2022/06/25 00:20:55;;;;;;;2.63;2.27;;;16.80;99.90;;;;;;5033159;28;20632;-65
2022/06/25 00:23:21;;;;;;;3.20;2.30;;;16.80;99.90;;;;;;5034176;28;20665;-64
2022/06/25 00:25:49;;;;;;;2.87;2.23;;;16.80;99.90;;;;;;5034295;28;20230;-65
2022/06/25 00:28:16;;;;;;;4.00;2.90;;;16.80;99.90;;;;;;5033817;28;20900;-64
2022/06/25 00:30:43;;;;;;;9.20;2.70;;;16.80;99.90;;;;;;5034022;28;20723;-64
2022/06/25 00:33:09;;;;;;;2.70;2.50;;;16.70;99.90;;;;;;5034004;28;20608;-64
2022/06/25 00:35:36;;;;;;;2.53;2.33;;;16.70;99.90;;;;;;5033976;28;20283;-63
2022/06/25 00:38:03;;;;;;;2.53;2.33;;;16.70;99.90;;;;;;5033230;28;20292;-64
2022/06/25 00:40:29;;;;;;;4.07;2.60;;;16.70;99.90;;;;;;5033868;28;20209;-64
2022/06/25 00:42:57;;;;;;;2.30;2.10;;;16.70;99.90;;;;;;5033817;28;20266;-63
2022/06/25 00:45:24;;;;;;;3.83;2.33;;;16.70;99.90;;;;;;5033976;28;20210;-64
2022/06/25 00:47:51;;;;;;;2.87;2.37;;;16.70;99.90;;;;;;5033138;28;20203;-63
2022/06/25 00:50:18;;;;;;;4.90;2.30;;;16.70;99.90;;;;;;5033715;28;20581;-64
2022/06/25 00:52:52;;;;;;;2.23;2.03;;;16.60;99.90;;;;;;5033596;28;20217;-64
2022/06/25 00:55:23;;;;;;;5.13;2.50;;;16.60;99.90;;;;;;5033421;28;20217;-64
2022/06/25 00:57:51;;;;;;;3.30;2.00;;;16.60;99.90;;;;;;5033368;28;20230;-65
2022/06/25 01:00:19;;;;;;;4.47;2.73;;;16.60;99.90;;;;;;5033593;28;20241;-65
2022/06/25 01:02:46;;;;;;;2.73;2.33;;;16.60;99.90;;;;;;5033582;28;20225;-64
2022/06/25 01:05:15;;;;;;;3.60;2.57;;;16.60;99.90;;;;;;5033251;28;20275;-64
2022/06/25 01:07:45;;;;;;;3.20;2.40;;;16.60;99.90;;;;;;5032819;28;20226;-64
2022/06/25 01:10:13;;;;;;;3.77;2.80;;;16.60;99.90;;;;;;5033582;28;20625;-64
2022/06/25 01:12:40;;;;;;;4.43;2.53;;;16.60;99.90;;;;;;5033141;28;20233;-65
2022/06/25 01:15:09;;;;;;;2.90;2.70;;;16.60;99.90;;;;;;5033416;28;20256;-63
2022/06/25 01:17:42;;;;;;;3.93;2.70;;;16.60;99.90;;;;;;5032296;28;20765;-65
2022/06/25 01:20:10;;;;;;;3.30;2.97;;;16.60;99.90;;;;;;5032872;28;20325;-64
2022/06/25 01:22:38;;;;;;;4.27;2.57;;;16.60;99.90;;;;;;5033095;28;20260;-64
2022/06/25 01:25:08;;;;;;;3.27;2.90;;;16.60;99.90;;;;;;5033227;28;20252;-64
2022/06/25 01:27:35;;;;;;;3.70;3.27;;;16.60;99.90;;;;;;5032910;28;20332;-65
2022/06/25 01:30:02;;;;;;;7.00;3.37;;;16.60;99.90;;;;;;5032872;28;20567;-64
2022/06/25 01:32:29;;;;;;;4.37;2.80;;;16.60;99.90;;;;;;5032763;28;20301;-64
2022/06/25 01:34:56;;;;;;;5.27;2.60;;;16.60;99.90;;;;;;5032828;28;20206;-64
2022/06/25 01:37:22;;;;;;;3.97;3.57;;;16.60;99.90;;;;;;5032559;28;20296;-64
2022/06/25 01:39:53;;;;;;;6.33;3.17;;;16.60;99.90;;;;;;5032639;28;20213;-64
2022/06/25 01:45:01;;;;;;;5.70;3.40;;;16.60;99.90;;;;;;5032206;28;20198;-64
2022/06/25 01:47:27;;;;;;;4.57;3.43;;;16.60;99.90;;;;;;5032437;28;20222;-64
2022/06/25 01:49:54;;;;;;;4.43;3.77;;;16.60;99.90;;;;;;5032695;28;20206;-64
2022/06/25 01:52:21;;;;;;;4.70;3.53;;;16.50;99.90;;;;;;5032536;28;20211;-64
2022/06/25 01:54:48;;;;;;;6.10;3.77;;;16.50;99.90;;;;;;5032723;28;20206;-63
2022/06/25 01:57:16;;;;;;;3.77;3.47;;;16.50;99.90;;;;;;5031940;28;20280;-64
2022/06/25 01:59:45;;;;;;;6.73;4.10;;;16.50;99.90;;;;;;5032302;28;20210;-64
2022/06/25 02:02:11;;;;;;;4.83;3.80;;;16.50;99.90;;;;;;5032482;28;20241;-64
2022/06/25 02:04:38;;;;;;;8.30;4.17;;;16.50;99.90;;;;;;5032394;28;20206;-63
2022/06/25 02:07:05;;;;;;;5.30;3.43;;;16.50;99.90;;;;;;5031928;28;20222;-63
2022/06/25 02:09:32;;;;;;;5.13;3.67;;;16.40;99.90;;;;;;5032257;28;20210;-64
2022/06/25 02:11:59;;;;;;;4.77;3.90;;;16.40;99.90;;;;;;5032150;28;20673;-64
2022/06/25 02:14:27;;;;;;;7.50;3.53;;;16.40;99.90;;;;;;5031960;28;20206;-64
2022/06/25 02:16:54;;;;;;;5.63;3.47;;;16.40;99.90;;;;;;5032005;28;20261;-64
2022/06/25 02:19:21;;;;;;;5.63;3.53;;;16.40;99.90;;;;;;5032036;28;20215;-63
2022/06/25 02:21:48;;;;;;;6.93;3.90;;;16.40;99.90;;;;;;5032061;28;20205;-63
2022/06/25 02:24:15;;;;;;;4.20;3.60;;;16.40;99.90;;;;;;5032095;28;20213;-63
2022/06/25 02:26:41;;;;;;;6.63;3.40;;;16.40;99.90;;;;;;5031350;28;20230;-63
2022/06/25 02:29:08;;;;;;;5.13;3.60;;;16.40;99.90;;;;;;5032182;28;20218;-64
2022/06/25 02:31:36;;;;;;;6.03;3.60;;;16.40;99.90;;;;;;5032031;28;20257;-63
2022/06/25 02:34:03;;;;;;;4.23;3.47;;;16.30;99.90;;;;;;5031988;28;20206;-63
2022/06/25 02:36:29;;;;;;;8.57;4.13;;;16.30;99.90;;;;;;5031461;28;20230;-64
2022/06/25 02:38:56;;;;;;;3.87;3.43;;;16.30;99.90;;;;;;5031536;28;20223;-64
2022/06/25 02:41:23;;;;;;;6.60;3.43;;;16.30;99.90;;;;;;5031639;28;20213;-64
2022/06/25 02:43:49;;;;;;;6.70;4.10;;;16.30;99.90;;;;;;5031383;28;20211;-63
2022/06/25 02:46:16;;;;;;;5.13;3.93;;;16.30;99.90;;;;;;5031373;28;20226;-64
2022/06/25 02:48:44;;;;;;;4.30;3.90;;;16.20;99.90;;;;;;5031624;28;20206;-64
2022/06/25 02:51:11;;;;;;;5.33;3.87;;;16.20;99.90;;;;;;5031819;28;20259;-64
2022/06/25 02:53:37;;;;;;;5.40;4.00;;;16.20;99.90;;;;;;5031597;28;20337;-63
2022/06/25 02:58:56;;;;;;;7.37;4.53;;;16.10;99.90;;;;;;5031772;28;20224;-64
2022/06/25 03:01:23;;;;;;;8.77;4.57;;;16.10;99.90;;;;;;5031544;28;20241;-64
2022/06/25 03:03:52;;;;;;;6.57;4.10;;;16.10;99.90;;;;;;5031698;28;20210;-63
2022/06/25 03:06:19;;;;;;;6.23;4.47;;;16.10;99.90;;;;;;5030955;28;20226;-64
2022/06/25 03:08:46;;;;;;;5.03;3.70;;;16.10;99.90;;;;;;5031869;28;20592;-64
2022/06/25 03:11:13;;;;;;;6.97;4.47;;;16.10;99.90;;;;;;5031496;28;20232;-65
2022/06/25 03:13:40;;;;;;;5.93;4.23;;;16.10;99.90;;;;;;5031701;28;20264;-64
2022/06/25 03:16:08;;;;;;;5.53;4.07;;;16.10;99.90;;;;;;5031123;28;20736;-64
2022/06/25 03:18:35;;;;;;;7.33;4.53;;;16.10;99.90;;;;;;5031159;28;20701;-64
2022/06/25 03:21:04;;;;;;;5.10;4.40;;;16.10;99.90;;;;;;5031342;28;20236;-63
2022/06/25 03:23:31;;;;;;;4.37;3.70;;;16.10;99.90;;;;;;5031216;28;20210;-64
2022/06/25 03:25:57;;;;;;;4.23;3.83;;;16.10;99.90;;;;;;5031223;28;20222;-64
2022/06/25 03:28:24;;;;;;;6.67;4.00;;;16.10;99.90;;;;;;5031322;28;20256;-64
2022/06/25 03:30:51;;;;;;;5.10;3.87;;;16.00;99.90;;;;;;5031649;28;20202;-64
2022/06/25 03:33:18;;;;;;;4.97;4.00;;;16.00;99.90;;;;;;5031161;28;20218;-64
2022/06/25 03:35:44;;;;;;;4.30;3.90;;;16.00;99.90;;;;;;5031131;28;20241;-63
2022/06/25 03:38:12;;;;;;;4.73;3.87;;;16.00;99.90;;;;;;5031248;28;20268;-65
2022/06/25 03:40:39;;;;;;;6.73;3.93;;;16.10;99.90;;;;;;5030935;28;20210;-64
2022/06/25 03:43:06;;;;;;;4.87;4.13;;;16.00;99.90;;;;;;5031241;28;20210;-64
2022/06/25 03:45:32;;;;;;;6.57;3.93;;;16.00;99.90;;;;;;5031095;28;20249;-64
2022/06/25 03:47:59;;;;;;;5.80;4.10;;;16.10;99.90;;;;;;5030741;28;20202;-64
2022/06/25 03:50:26;;;;;;;4.67;4.07;;;16.10;99.90;;;;;;5031198;28;20216;-64
2022/06/25 03:52:52;;;;;;;6.13;3.80;;;16.10;99.90;;;;;;5031540;28;20210;-64
2022/06/25 03:55:20;;;;;;;4.20;3.17;;;16.10;99.90;;;;;;5032271;28;20214;-66
2022/06/25 03:57:47;;;;;;;5.10;3.70;;;16.20;99.90;;;;;;5034088;28;20233;-64
2022/06/25 04:00:15;;;;;;;7.27;3.77;;;16.20;99.90;;;;;;5034744;28;20206;-64
2022/06/25 04:02:41;;;;;;;4.83;3.50;;;16.20;99.90;;;;;;5034336;28;20341;-64
2022/06/25 04:05:08;;;;;;;8.00;3.20;;;16.30;99.90;;;;;;5034543;28;20206;-64
2022/06/25 04:07:35;;;;;;;3.60;3.30;;;16.30;99.90;;;;;;5033954;28;20725;-64
2022/06/25 04:10:01;;;;;;;5.43;3.27;;;16.30;99.90;;;;;;5034257;28;20215;-64
2022/06/25 04:12:29;;;;;;;5.80;3.50;;;16.40;99.90;;;;;;5034486;28;20289;-64
2022/06/25 04:14:56;;;;;;;5.53;3.37;;;16.40;99.90;;;;;;5034830;28;20210;-64
2022/06/25 04:17:23;;;;;;;4.80;3.47;;;16.50;99.90;;;;;;5033993;28;20651;-64
2022/06/25 04:19:49;;;;;;;4.83;3.57;;;16.50;99.90;;;;;;5034246;28;20557;-63
2022/06/25 04:22:16;;;;;;;4.73;3.13;;;16.60;99.90;;;;;;5034167;28;20213;-64
2022/06/25 04:24:43;;;;;;;3.40;3.10;;;16.60;99.90;;;;;;5034028;28;20206;-64
2022/06/25 04:29:03;;;;;;;4.37;3.20;;;16.60;99.90;;;;;;5033915;28;20230;-63
2022/06/25 04:29:57;;;;;;;3.83;2.90;;;16.70;99.90;;;;;;5033964;28;20252;-64
2022/06/25 04:32:23;;;;;;;5.30;3.33;;;16.70;99.90;;;;;;5033720;28;20211;-64
2022/06/25 04:34:50;;;;;;;4.70;3.27;;;16.70;99.90;;;;;;5034206;28;20206;-64
2022/06/25 04:37:17;;;;;;;3.40;3.00;;;16.70;99.90;;;;;;5033453;28;20280;-65
2022/06/25 04:39:43;;;;;;;6.37;3.47;;;16.80;99.90;;;;;;5033986;28;20209;-64
2022/06/25 04:42:10;;;;;;;3.93;2.63;;;16.80;99.90;;;;;;5033537;28;20210;-63
2022/06/25 04:44:36;;;;;;;3.43;3.00;;;16.80;99.90;;;;;;5034070;28;20547;-64
2022/06/25 04:47:05;;;;;;;4.93;3.23;;;16.80;99.90;;;;;;5033364;28;20309;-64
2022/06/25 04:49:32;;;;;;;3.23;2.93;;;16.90;99.90;;;;;;5033575;28;20203;-65
2022/06/25 04:51:58;;;;;;;4.53;3.17;;;16.90;99.90;;;;;;5033813;28;20211;-64
2022/06/25 04:54:25;;;;;;;4.87;3.57;;;17.00;99.90;;;;;;5033556;28;20272;-64
2022/06/25 04:56:52;;;;;;;4.30;2.80;;;17.00;99.90;;;;;;5032953;28;20230;-64
2022/06/25 04:59:19;;;;;;;4.40;3.03;;;17.10;99.90;;;;;;5033554;28;20230;-64
2022/06/25 05:01:46;;;;;;;3.53;2.93;;;17.10;99.90;;;;;;5033796;28;20214;-64
2022/06/25 05:04:14;;;;;;;4.97;3.23;;;17.10;99.90;;;;;;5033639;28;20206;-63
2022/06/25 05:06:40;;;;;;;3.97;3.00;;;17.20;99.90;;;;;;5032420;28;20652;-63
2022/06/25 05:09:07;;;;;;;5.33;2.53;;;17.20;99.90;;;;;;5033440;28;20245;-64
2022/06/25 05:11:34;;;;;;;3.03;2.73;;;17.30;99.90;;;;;;5032911;28;20206;-65
2022/06/25 05:14:00;;;;;;;5.53;2.63;;;17.40;99.90;;;;;;5033521;28;20226;-64
2022/06/25 05:16:27;;;;;;;3.77;3.00;;;17.40;99.90;;;;;;5032534;28;20230;-64
2022/06/25 05:18:53;;;;;;;3.50;2.80;;;17.50;99.90;;;;;;5033030;28;20641;-64
2022/06/25 05:21:21;;;;;;;3.33;2.70;;;17.50;99.90;;;;;;5032656;28;20699;-64
2022/06/25 05:23:48;;;;;;;6.47;2.90;;;17.60;99.90;;;;;;5032727;28;20636;-65
2022/06/25 05:26:15;;;;;;;4.57;2.50;;;17.70;99.90;;;;;;5032450;28;20786;-64
2022/06/25 05:28:41;;;;;;;2.83;2.50;;;17.70;99.90;;;;;;5033048;28;20206;-64
2022/06/25 05:31:08;;;;;;;5.50;2.90;;;17.80;99.90;;;;;;5032806;28;20206;-64
2022/06/25 05:33:35;;;;;;;3.33;2.53;;;17.90;99.90;;;;;;5032798;28;20210;-64
2022/06/25 05:36:01;;;;;;;5.30;2.70;;;17.90;99.90;;;;;;5032385;28;20223;-64
2022/06/25 05:38:29;;;;;;;4.17;2.57;;;17.90;99.90;;;;;;5032220;28;20248;-64
2022/06/25 05:40:57;;;;;;;3.83;2.70;;;17.90;99.90;;;;;;5032650;28;20241;-65
2022/06/25 05:43:23;;;;;;;6.27;2.90;;;17.90;99.90;;;;;;5032813;28;20206;-63
2022/06/25 05:45:50;;;;;;;2.80;2.50;;;18.00;99.90;;;;;;5032340;28;20226;-64
2022/06/25 05:48:17;;;;;;;4.57;2.97;;;18.00;99.90;;;;;;5032393;28;20199;-64
2022/06/25 05:50:44;;;;;;;4.57;2.60;;;18.10;99.90;;;;;;5032488;28;20681;-64
2022/06/25 05:53:11;;;;;;;6.00;3.10;;;18.10;99.90;;;;;;5032249;28;20260;-65
2022/06/25 05:55:39;;;;;;;5.67;3.13;;;18.20;99.90;;;;;;5032259;28;20256;-63
2022/06/25 05:58:06;;;;;;;4.93;2.60;;;18.30;99.90;;;;;;5031917;28;20222;-64
2022/06/25 06:00:32;;;;;;;3.87;2.67;;;18.40;99.90;;;;;;5032312;28;20206;-65
2022/06/25 06:02:59;;;;;;;3.97;2.53;;;18.40;99.90;;;;;;5032125;28;20214;-65
2022/06/25 06:05:26;;;;;;;3.77;2.80;;;18.50;99.90;;;;;;5032069;28;20263;-65
2022/06/25 06:07:52;;;;;;;4.83;2.50;;;18.60;99.90;;;;;;5031593;28;20206;-64
2022/06/25 06:10:20;;;;;;;3.23;2.43;;;18.80;99.90;;;;;;5032482;28;20206;-65
2022/06/25 06:12:48;;;;;;;3.27;2.33;;;18.80;99.90;;;;;;5032091;28;20290;-64
2022/06/25 06:15:15;;;;;;;5.60;2.70;;;18.80;99.90;;;;;;5032266;28;20206;-65
2022/06/25 06:17:42;;;;;;;2.70;2.17;;;18.90;99.90;;;;;;5030898;28;20721;-65
2022/06/25 06:20:09;;;;;;;4.23;2.70;;;19.00;99.90;;;;;;5031677;28;20230;-64
2022/06/25 06:22:36;;;;;;;4.87;2.87;;;19.00;99.90;;;;;;5032203;28;20210;-64
2022/06/25 06:25:03;;;;;;;6.30;2.93;;;19.00;99.90;;;;;;5032008;28;20210;-65
2022/06/25 06:27:30;;;;;;;3.53;2.13;;;19.10;99.90;;;;;;5031669;28;20222;-67
2022/06/25 06:29:58;;;;;;;5.87;2.83;;;19.10;99.90;;;;;;5038935;28;20251;-66
2022/06/25 06:32:25;;;;;;;6.70;2.40;;;19.20;99.90;;;;;;5051360;28;20628;-67
2022/06/25 06:34:52;;;;;;;5.70;2.10;;;19.20;99.90;;;;;;5051453;28;20213;-66
2022/06/25 06:37:18;;;;;;;4.73;2.77;;;19.30;99.90;;;;;;5051149;28;20236;-67
2022/06/25 06:39:45;;;;;;;2.90;2.37;;;19.40;99.90;;;;;;5051377;28;20650;-67
2022/06/25 06:42:12;;;;;;;4.53;2.10;;;19.40;99.90;;;;;;5051236;28;20205;-67
2022/06/25 06:44:38;;;;;;;7.17;2.43;;;19.50;99.90;;;;;;5051448;28;20213;-67
2022/06/25 06:47:07;;;;;;;3.43;2.50;;;19.50;99.90;;;;;;5050921;28;20230;-66
2022/06/25 06:49:33;;;;;;;5.17;2.80;;;19.70;99.90;;;;;;5051730;28;20205;-66
2022/06/25 06:52:00;;;;;;;4.33;2.70;;;19.80;99.90;;;;;;5051026;28;20239;-67
2022/06/25 06:54:27;;;;;;;4.07;2.10;;;19.80;99.90;;;;;;5051526;28;20252;-66
2022/06/25 06:56:55;;;;;;;4.00;2.10;;;19.90;99.90;;;;;;5050878;28;20279;-65
2022/06/25 06:59:22;;;;;;;5.43;2.50;;;20.00;99.90;;;;;;5050856;28;20745;-67
2022/06/25 07:01:48;;;;;;;3.03;2.40;;;20.10;99.90;;;;;;5050943;28;20206;-66
2022/06/25 07:04:16;;;;;;;4.67;2.43;;;20.10;99.90;;;;;;5051353;28;20259;-64
2022/06/25 07:06:43;;;;;;;2.87;2.37;;;20.10;99.90;;;;;;5050876;28;20237;-67
2022/06/25 07:09:10;;;;;;;7.33;2.70;;;20.30;99.90;;;;;;5051320;28;20668;-66
2022/06/25 07:11:36;;;;;;;4.37;2.20;;;20.30;99.90;;;;;;5050706;28;20205;-66
2022/06/25 07:14:05;;;;;;;7.07;2.13;;;20.40;99.90;;;;;;5051094;28;20741;-66
2022/06/25 07:16:32;;;;;;;5.57;2.10;;;20.50;99.90;;;;;;5050523;28;20291;-66
2022/06/25 07:19:01;;;;;;;5.00;2.00;;;20.70;99.90;;;;;;5050721;28;20234;-66
2022/06/25 07:21:29;;;;;;;5.90;2.33;;;20.80;99.90;;;;;;5050759;28;20206;-67
2022/06/25 07:23:56;;;;;;;4.23;2.33;;;20.90;93.00;;;;;;5050901;28;20209;-66
2022/06/25 07:26:24;;;;;;;2.20;1.87;;;21.00;80.40;;;;;;5050585;28;20786;-66
2022/06/25 07:28:52;;;;;;;2.50;1.97;;;21.10;20.40;;;;;;5050827;28;20202;-66
2022/06/25 07:31:19;;;;;;;2.27;2.03;;;21.20;1.00;;;;;;5054750;28;20202;-67
2022/06/25 07:33:46;;;;;;;4.70;2.03;;;21.30;99.90;;;;;;5054982;28;20221;-66
2022/06/25 07:36:12;;;;;;;3.80;1.90;;;21.40;1.00;;;;;;5053991;28;20229;-65
2022/06/25 07:38:40;;;;;;;2.13;1.77;;;21.50;1.00;;;;;;5054417;28;20601;-66
2022/06/25 07:41:07;;;;;;;3.50;1.90;;;21.70;1.00;;;;;;5054182;28;20729;-66
2022/06/25 07:43:34;;;;;;;5.37;2.20;;;21.80;99.90;;;;;;5054329;28;20591;-66
2022/06/25 07:46:00;;;;;;;3.13;2.03;;;21.90;99.90;;;;;;5054320;28;20275;-67
2022/06/25 07:48:27;;;;;;;3.23;1.97;;;22.00;1.00;;;;;;5054421;28;20216;-66
2022/06/25 07:53:40;;;;;;;7.40;2.00;;;22.20;99.90;;;;;;5054230;28;20205;-67
2022/06/25 07:56:06;;;;;;;3.77;1.67;;;22.30;99.90;;;;;;5053778;28;20284;-67
2022/06/25 07:58:34;;;;;;;3.10;1.87;;;22.30;99.90;;;;;;5054425;28;20259;-66
2022/06/25 08:01:00;;;;;;;3.20;1.47;;;22.30;93.00;;;;;;5053931;28;20296;-66
2022/06/25 08:03:27;;;;;;;4.93;1.37;;;22.40;32.80;;;;;;5054765;28;20210;-66
2022/06/25 08:05:54;;;;;;;3.73;1.40;;;22.30;99.90;;;;;;5053864;28;20225;-66
2022/06/25 08:08:21;;;;;;;2.73;1.43;;;22.50;99.90;;;;;;5054365;28;20433;-67
2022/06/25 08:10:49;;;;;;;2.33;1.40;;;22.60;99.90;;;;;;5054171;28;20201;-67
2022/06/25 08:13:16;;;;;;;5.37;1.50;;;22.80;99.90;;;;;;5054569;28;20296;-68
2022/06/25 08:15:42;;;;;;;3.83;1.53;;;22.80;99.90;;;;;;5053939;28;20205;-66
2022/06/25 08:18:09;;;;;;;2.83;1.43;;;22.80;89.50;;;;;;5053864;28;20279;-65
2022/06/25 08:20:36;;;;;;;2.10;1.57;;;22.80;99.90;;;;;;5054074;28;20777;-66
2022/06/25 08:23:03;;;;;;;3.93;1.60;;;22.90;99.90;;;;;;5053858;28;20271;-67
2022/06/25 08:25:29;;;;;;;1.70;1.50;;;23.00;99.90;;;;;;5053991;28;20248;-65
2022/06/25 08:27:57;;;;;;;2.00;1.60;;;23.10;27.70;;;;;;5053789;28;20209;-67
2022/06/25 08:30:25;;;;;;;4.03;1.83;;;23.20;99.90;;;;;;5054325;28;20209;-66
2022/06/25 08:32:51;;;;;;;7.40;1.80;;;22.90;1.00;;;;;;5054038;28;20206;-66
2022/06/25 08:35:19;;;;;;;3.43;1.77;;;22.90;1.00;;;;;;5054052;28;20206;-66
2022/06/25 08:37:47;;;;;;;2.47;1.50;;;22.80;1.00;;;;;;5053663;28;20670;-67
2022/06/25 08:40:16;;;;;;;3.87;1.80;;;22.90;1.00;;;;;;5053704;28;20225;-65
2022/06/25 08:42:43;;;;;;;4.40;1.60;;;23.10;1.00;;;;;;5053784;28;20216;-67
2022/06/25 08:45:11;;;;;;;2.87;1.70;;;23.10;1.00;;;;;;5053841;28;20214;-66
2022/06/25 08:47:43;;;;;;;3.90;2.00;;;23.10;1.00;;;;;;5053594;28;20225;-66
2022/06/25 08:50:11;;;;;;;4.43;1.80;;;23.30;1.00;;;;;;5053729;28;20205;-66
2022/06/25 08:52:38;;;;;;;3.57;1.80;;;23.40;1.00;;;;;;5053988;28;20293;-66
2022/06/25 08:55:07;;;;;;;4.47;1.90;;;23.40;1.00;;;;;;5053648;28;20668;-66
2022/06/25 08:57:33;;;;;;;6.93;2.10;;;23.40;1.00;;;;;;5053322;28;20230;-67
2022/06/25 09:00:00;;;;;;;3.83;2.20;;;23.30;1.00;;;;;;5053696;28;20217;-65
2022/06/25 09:02:28;;;;;;;4.47;1.90;;;23.20;1.00;;;;;;5053455;28;20256;-66
2022/06/25 09:04:55;;;;;;;3.93;2.03;;;23.30;37.00;;;;;;5053470;28;20218;-66
2022/06/25 09:07:23;;;;;;;3.27;1.90;;;23.50;1.00;;;;;;5052934;28;20653;-66
2022/06/25 09:09:50;;;;;;;3.63;1.73;;;23.60;1.00;;;;;;5053471;28;20201;-66
2022/06/25 09:12:18;;;;;;;4.53;1.60;;;23.50;1.00;;;;;;5053318;28;20633;-66
2022/06/25 09:14:45;;;;;;;4.50;1.60;;;23.60;99.90;;;;;;5053380;28;20619;-66
2022/06/25 09:17:14;;;;;;;3.37;1.63;;;23.60;1.00;;;;;;5052726;28;20237;-66
2022/06/25 09:19:43;;;;;;;3.33;1.77;;;23.00;99.90;;;;;;5053165;28;20256;-65
2022/06/25 09:22:12;;;;;;;4.03;1.50;;;22.80;1.00;;;;;;5053403;28;20210;-67
2022/06/25 09:24:48;;;;;;;4.83;1.87;;;22.90;1.00;;;;;;5053201;28;20217;-67
2022/06/25 09:27:19;;;;;;;4.27;1.70;;;23.00;1.00;;;;;;5052584;28;20275;-66
2022/06/25 09:29:48;;;;;;;5.23;1.77;;;23.10;1.00;;;;;;5046699;28;20296;-67
2022/06/25 09:32:16;;;;;;;2.93;1.97;;;23.20;99.90;;;;;;5052718;28;20255;-65
2022/06/25 09:34:45;;;;;;;4.10;1.47;;;23.40;99.90;;;;;;5052699;28;20247;-66
2022/06/25 09:37:20;;;;;;;3.47;1.27;;;23.40;99.90;;;;;;5052149;28;20247;-66
2022/06/25 09:39:48;;;;;;;2.13;1.50;;;23.20;99.90;;;;;;5052310;28;20267;-67
2022/06/25 09:42:26;;;;;;;3.23;1.67;;;23.00;99.90;;;;;;5051946;28;20213;-70
2022/06/25 09:45:00;;;;;;;6.50;1.90;;;23.30;1.00;;;;;;5052691;28;20588;-63
2022/06/25 09:47:27;;;;;;;2.90;1.50;;;23.80;1.00;;;;;;5051934;28;20228;-63
2022/06/25 09:50:05;;;;;;;2.97;1.33;;;24.20;99.90;;;;;;5052260;28;20198;-63
2022/06/25 09:52:32;;;;;;;2.70;1.70;;;24.30;99.90;;;;;;5052167;28;20209;-63
2022/06/25 09:54:59;;;;;;;2.30;1.30;;;24.60;99.90;;;;;;5052231;28;20754;-63
2022/06/25 09:57:27;;;;;;;5.07;1.50;;;24.90;99.90;;;;;;5052089;28;20234;-64
2022/06/25 09:59:56;;;;;;;4.60;1.83;;;25.00;99.90;;;;;;5053881;28;20247;-63
2022/06/25 10:02:27;;;;;;;1.60;1.43;;;24.80;99.90;;;;;;5052717;28;20271;-65
2022/06/25 10:04:58;;;;;;;7.40;3.23;;;24.40;99.90;;;;;;5051930;28;20213;-65
2022/06/25 10:07:59;;;;;;;5.57;2.27;;;24.30;99.90;;;;;;5052002;28;20229;-65
2022/06/25 10:10:18;;;;;;;7.53;3.63;;;24.00;99.90;;;;;;5051592;28;20198;-68
2022/06/25 10:12:46;;;;;;;3.80;2.03;;;24.00;99.90;;;;;;5051892;28;20730;-67
2022/06/25 10:15:15;;;;;;;6.67;4.13;;;24.10;99.90;;;;;;5051989;28;20206;-64
2022/06/25 10:17:42;;;;;;;5.30;2.10;;;24.40;99.90;;;;;;5050946;28;20876;-63
2022/06/25 10:20:09;;;;;;;2.67;1.70;;;24.70;99.90;;;;;;5051590;28;20225;-69
2022/06/25 10:22:39;;;;;;;7.30;4.20;;;24.70;99.90;;;;;;5051614;28;20215;-66
2022/06/25 10:25:10;;;;;;;5.40;3.67;;;24.60;99.90;;;;;;5051833;28;20209;-69
2022/06/25 10:27:40;;;;;;;6.57;1.77;;;24.80;99.90;;;;;;5051654;28;20229;-68
2022/06/25 10:30:08;;;;;;;16.93;7.70;;;25.00;99.90;;;;;;5051737;28;20614;-64
2022/06/25 10:32:44;;;;;;;5.33;2.80;;;25.20;99.90;;;;;;5052150;28;20218;-66
2022/06/25 10:35:27;;;;;;;4.07;2.27;;;25.00;99.90;;;;;;5051309;28;20245;-64
2022/06/25 10:38:05;;;;;;;6.77;3.80;;;24.80;99.90;;;;;;5051239;28;20213;-64
2022/06/25 10:40:34;;;;;;;5.93;2.73;;;24.80;99.90;;;;;;5051061;28;20276;-64
2022/06/25 10:43:24;;;;;;;4.23;1.90;;;24.90;99.90;;;;;;5051532;28;20239;-66
2022/06/25 10:45:50;;;;;;;4.10;1.97;;;25.00;99.90;;;;;;5051265;28;20225;-65
2022/06/25 10:48:19;;;;;;;2.30;2.10;;;24.80;99.90;;;;;;5051178;28;20213;-64
2022/06/25 10:50:55;;;;;;;3.37;2.17;;;24.60;99.90;;;;;;5051026;28;20267;-64
2022/06/25 10:53:27;;;;;;;6.53;2.53;;;24.80;99.90;;;;;;5051252;28;20574;-65
2022/06/25 10:56:24;;;;;;;3.20;1.57;;;24.90;99.90;;;;;;5051070;28;20239;-65
2022/06/25 10:58:52;;;;;;;5.10;1.90;;;25.10;99.90;;;;;;5051269;28;20206;-65
2022/06/25 11:01:24;;;;;;;2.83;1.63;;;25.20;99.90;;;;;;5050698;28;20232;-65
2022/06/25 11:03:55;;;;;;;3.30;1.80;;;25.30;99.90;;;;;;5051623;28;20232;-66
2022/06/25 11:06:24;;;;;;;1.70;1.50;;;25.20;99.90;;;;;;5055001;28;20225;-66
2022/06/25 11:08:53;;;;;;;3.27;1.90;;;25.30;99.90;;;;;;5055208;28;20201;-67
2022/06/25 11:11:25;;;;;;;4.03;1.90;;;25.20;99.90;;;;;;5054724;28;20201;-67
2022/06/25 11:13:52;;;;;;;4.50;2.40;;;25.40;99.90;;;;;;5055091;28;20271;-66
2022/06/25 11:16:20;;;;;;;3.30;1.50;;;25.60;99.90;;;;;;5054847;28;20233;-66
2022/06/25 11:18:47;;;;;;;2.43;1.40;;;25.80;99.90;;;;;;5054939;28;20214;-66
2022/06/25 11:21:35;;;;;;;4.70;1.33;;;25.60;99.90;;;;;;5054697;28;20225;-68
2022/06/25 11:24:11;;;;;;;2.77;1.90;;;25.70;99.90;;;;;;5054765;28;20277;-66
2022/06/25 11:29:25;;;;;;;8.37;1.43;;;26.00;99.90;;;;;;5054668;28;20204;-67
2022/06/25 11:31:52;;;;;;;3.53;1.53;;;26.00;99.90;;;;;;5054677;28;20205;-63
2022/06/25 11:34:21;;;;;;;1.77;1.60;;;26.00;99.90;;;;;;5060938;28;20259;-64
2022/06/25 11:37:00;;;;;;;3.20;1.33;;;25.70;99.90;;;;;;5073865;28;20233;-64
2022/06/25 11:39:28;;;;;;;4.43;1.50;;;25.60;99.90;;;;;;5074578;28;20247;-64
2022/06/25 11:41:55;;;;;;;4.00;1.53;;;25.60;99.90;;;;;;5074395;28;20243;-64
2022/06/25 11:44:22;;;;;;;2.97;1.67;;;25.60;99.90;;;;;;5074772;28;20205;-65
2022/06/25 11:46:51;;;;;;;3.43;1.67;;;25.30;99.90;;;;;;5073986;28;20236;-64
2022/06/25 11:49:20;;;;;;;3.40;1.50;;;25.10;99.90;;;;;;5074088;28;20236;-65
2022/06/25 11:51:48;;;;;;;3.23;1.47;;;24.80;99.90;;;;;;5074145;28;20254;-65
2022/06/25 11:54:22;;;;;;;4.00;2.23;;;24.90;99.90;;;;;;5074939;28;20204;-65
2022/06/25 11:56:52;;;;;;;2.97;1.40;;;24.90;99.90;;;;;;5074283;28;20291;-66
2022/06/25 11:59:30;;;;;;;2.90;1.40;;;25.20;99.90;;;;;;5074530;28;20636;-65
2022/06/25 12:01:59;;;;;;;4.10;1.50;;;25.50;99.90;;;;;;5073890;28;20235;-66
2022/06/25 12:04:27;;;;;;;3.03;1.47;;;25.70;99.90;;;;;;5074322;28;20201;-66
2022/06/25 12:06:53;;;;;;;3.30;1.30;;;25.90;99.90;;;;;;5073881;28;20225;-65
2022/06/25 12:09:22;;;;;;;3.93;1.33;;;26.00;99.90;;;;;;5074015;28;20577;-66
2022/06/25 12:11:55;;;;;;;4.10;1.40;;;26.10;99.90;;;;;;5073757;28;20205;-64
2022/06/25 12:14:23;;;;;;;4.03;1.50;;;26.10;99.90;;;;;;5073776;28;20205;-64
2022/06/25 12:16:50;;;;;;;1.97;1.33;;;26.10;99.90;;;;;;5072307;28;20236;-66
2022/06/25 12:19:18;;;;;;;3.40;1.30;;;26.00;99.90;;;;;;5074044;28;20211;-66
2022/06/25 12:21:44;;;;;;;3.07;1.50;;;26.30;99.90;;;;;;5073434;28;20229;-64
2022/06/25 12:24:13;;;;;;;3.37;1.63;;;26.30;99.90;;;;;;5073931;28;20209;-66
2022/06/25 12:26:41;;;;;;;3.23;1.47;;;25.90;99.90;;;;;;5073062;28;20320;-68
2022/06/25 12:29:12;;;;;;;2.20;1.30;;;25.70;99.90;;;;;;5073807;28;20212;-67
2022/06/25 12:31:39;;;;;;;5.30;2.00;;;25.80;99.90;;;;;;5073464;28;20227;-64
2022/06/25 12:34:07;;;;;;;5.07;1.70;;;25.70;99.90;;;;;;5073602;28;20205;-65
2022/06/25 12:36:39;;;;;;;4.63;1.50;;;25.80;99.90;;;;;;5073215;28;20224;-64
2022/06/25 12:39:31;;;;;;;3.80;1.40;;;26.10;99.90;;;;;;5073124;28;20205;-64
2022/06/25 12:42:03;;;;;;;2.87;1.50;;;26.30;99.90;;;;;;5073069;28;20714;-65
2022/06/25 12:44:34;;;;;;;8.33;1.50;;;25.80;99.90;;;;;;5073329;28;20667;-65
2022/06/25 12:47:02;;;;;;;2.10;1.10;;;25.70;99.90;;;;;;5072945;28;20228;-65
2022/06/25 12:49:48;;;;;;;5.70;1.70;;;26.00;99.90;;;;;;5073099;28;20634;-65
2022/06/25 12:52:17;;;;;;;4.40;1.60;;;26.20;99.90;;;;;;5072040;28;20270;-65
2022/06/25 12:54:45;;;;;;;1.93;1.40;;;26.50;99.90;;;;;;5073090;28;20205;-66
2022/06/25 12:57:24;;;;;;;4.10;1.40;;;26.60;99.90;;;;;;5072908;28;20224;-66
2022/06/25 12:59:52;;;;;;;3.87;1.50;;;26.50;99.90;;;;;;5072717;28;20205;-64
2022/06/25 13:02:20;;;;;;;2.73;1.77;;;26.50;99.90;;;;;;5072935;28;20671;-65
2022/06/25 13:04:47;;;;;;;3.10;1.30;;;26.50;99.90;;;;;;5072929;28;20273;-67